Time;durP1;ratioP1;P1;durP2;ratioP2;P2;SDS_P1;SDS_P2;PMS_P1;PMS_P2;Temp;Humidity;BMP_temperature;BMP_pressure;BME280_temperature;BME280_humidity;BME280_pressure;Samples;Min_cycle;Max_cycle;Signal;HPM_P1;HPM_P2
2023/05/24 00:01:59;;;;;;;8.38;7.25;;;;;;;17.48;65.53;98769.25;5019179;28;20068;-90
2023/05/24 00:04:28;;;;;;;10.63;6.47;;;;;;;17.40;64.44;98765.09;5019157;28;20055;-90
2023/05/24 00:07:02;;;;;;;9.30;6.38;;;;;;;17.42;64.45;98773.69;5019935;28;20422;-89
2023/05/24 00:09:31;;;;;;;8.82;6.10;;;;;;;17.38;64.67;98769.06;5035266;28;20061;-89
2023/05/24 00:12:08;;;;;;;11.95;6.20;;;;;;;17.38;65.47;98777.09;5020019;28;20115;-90
2023/05/24 00:14:35;;;;;;;10.25;5.68;;;;;;;17.28;64.83;98767.00;5018802;28;20051;-90
2023/05/24 00:17:01;;;;;;;9.52;5.97;;;;;;;17.38;64.53;98775.25;5035422;28;20045;-89
2023/05/24 00:19:28;;;;;;;6.78;5.85;;;;;;;17.28;64.29;98756.28;5019153;28;20052;-89
2023/05/24 00:21:54;;;;;;;8.40;5.85;;;;;;;17.41;63.80;98765.91;5035058;28;20043;-90
2023/05/24 00:24:20;;;;;;;9.98;6.20;;;;;;;17.41;64.39;98763.25;5035195;28;20041;-89
2023/05/24 00:26:47;;;;;;;11.63;6.38;;;;;;;17.34;64.46;98757.19;5021802;28;20041;-90
2023/05/24 00:29:13;;;;;;;7.85;5.95;;;;;;;17.37;64.60;98756.72;5022385;28;20051;-90
2023/05/24 00:31:39;;;;;;;6.20;5.38;;;;;;;17.40;64.01;98756.25;5023163;28;20452;-89
2023/05/24 00:34:30;;;;;;;7.53;5.78;;;;;;;17.52;64.43;98754.34;5022127;28;20144;-91
2023/05/24 00:37:29;;;;;;;10.38;6.63;;;;;;;17.34;64.42;98751.84;5025215;28;20383;-90
2023/05/24 00:40:05;;;;;;;9.40;6.82;;;;;;;17.37;64.75;98743.31;5009428;28;20908;-92
2023/05/24 00:42:38;;;;;;;7.97;6.10;;;;;;;17.23;65.08;98735.53;5039547;28;20513;-92
2023/05/24 00:45:07;;;;;;;11.32;6.70;;;;;;;17.23;64.64;98738.22;5022358;28;20037;-92
2023/05/24 00:47:57;;;;;;;10.52;7.10;;;;;;;17.31;65.49;98734.34;5021817;28;20056;-92
2023/05/24 00:50:23;;;;;;;12.63;7.40;;;;;;;17.24;64.84;98737.16;5021928;28;20135;-92
2023/05/24 00:53:19;;;;;;;9.95;7.68;;;;;;;17.42;64.54;98738.84;5021713;28;20072;-92
2023/05/24 00:55:54;;;;;;;10.43;6.95;;;;;;;17.23;64.68;98732.03;5037902;28;20569;-92
2023/05/24 00:58:38;;;;;;;9.30;7.13;;;;;;;17.32;64.90;98738.66;5038478;28;20127;-92
2023/05/24 01:01:04;;;;;;;10.43;6.90;;;;;;;17.15;64.66;98725.19;5021636;28;20047;-92
2023/05/24 01:03:40;;;;;;;8.50;6.90;;;;;;;17.21;64.61;98728.78;5037979;28;20075;-93
2023/05/24 01:06:08;;;;;;;12.35;6.93;;;;;;;17.22;64.45;98725.06;5020678;28;20037;-92
2023/05/24 01:08:46;;;;;;;10.88;7.07;;;;;;;17.22;64.16;98727.72;5021368;28;20040;-92
2023/05/24 01:14:57;;;;;;;10.23;6.20;;;;;;;17.37;64.07;98720.00;5037811;28;20056;-91
2023/05/24 01:17:54;;;;;;;9.98;6.18;;;;;;;17.27;64.16;98717.94;5021341;28;20502;-91
2023/05/24 01:20:48;;;;;;;10.93;6.68;;;;;;;17.20;64.29;98700.38;4980949;28;20042;-91
2023/05/24 01:23:44;;;;;;;9.07;6.75;;;;;;;17.29;64.39;98715.03;4980493;28;20042;-92
2023/05/24 01:26:51;;;;;;;7.32;6.05;;;;;;;17.41;63.86;98715.00;4888018;29;20417;-92
2023/05/24 01:30:15;;;;;;;8.15;5.78;;;;;;;17.31;64.35;98710.22;4932100;29;20120;-91
2023/05/24 01:32:40;;;;;;;;;;;;;;;17.69;62.67;98710.66;4905415;29;20039;-91
2023/05/24 01:35:09;;;;;;;10.05;6.47;;;;;;;17.37;63.47;98714.66;4920041;29;19925;-91
2023/05/24 01:37:35;;;;;;;9.00;5.88;;;;;;;17.21;63.47;98702.00;4941730;28;20054;-91
2023/05/24 01:40:03;;;;;;;8.75;6.22;;;;;;;17.24;64.07;98712.25;4980671;28;20042;-91
2023/05/24 01:42:35;;;;;;;9.98;6.00;;;;;;;17.18;64.13;98708.66;4980493;28;20132;-93
2023/05/24 01:48:37;;;;;;;9.70;6.20;;;;;;;17.24;63.68;98706.91;4980536;28;20049;-88
2023/05/24 01:51:10;;;;;;;8.60;6.00;;;;;;;17.14;63.92;98712.84;5002948;28;20044;-89
2023/05/24 01:53:45;;;;;;;8.50;5.63;;;;;;;17.16;63.93;98708.88;5040147;28;20040;-89
2023/05/24 01:56:12;;;;;;;9.48;6.00;;;;;;;17.14;64.03;98712.84;5059967;28;20043;-88
2023/05/24 01:58:41;;;;;;;12.25;6.32;;;;;;;17.03;64.21;98706.50;5043483;28;20035;-89
2023/05/24 02:01:07;;;;;;;13.27;5.95;;;;;;;17.12;64.24;98713.09;5043329;28;20126;-91
2023/05/24 02:03:39;;;;;;;8.43;6.18;;;;;;;17.15;64.45;98701.91;5059874;28;20189;-92
2023/05/24 02:06:05;;;;;;;9.23;6.30;;;;;;;17.09;64.41;98694.81;5060197;28;20040;-91
2023/05/24 02:08:34;;;;;;;11.52;6.90;;;;;;;17.09;64.07;98694.81;5043911;28;20429;-92
2023/05/24 02:11:01;;;;;;;12.40;6.97;;;;;;;17.20;63.60;98709.22;5060306;28;20028;-93
2023/05/24 02:13:27;;;;;;;13.30;6.97;;;;;;;17.10;64.23;98698.31;5043355;28;20448;-93
2023/05/24 02:15:53;;;;;;;10.15;6.60;;;;;;;17.11;64.10;98698.06;5043533;28;20610;-93
2023/05/24 02:18:19;;;;;;;7.05;5.97;;;;;;;17.21;63.57;98702.00;5043956;28;20047;-91
2023/05/24 02:20:45;;;;;;;11.52;6.28;;;;;;;17.17;63.69;98697.13;5051103;28;20400;-90
2023/05/24 02:23:11;;;;;;;11.00;6.47;;;;;;;17.16;63.94;98687.44;5054087;28;20047;-90
2023/05/24 02:25:40;;;;;;;7.68;6.40;;;;;;;17.25;63.68;98693.25;5057413;28;20081;-91
2023/05/24 02:28:09;;;;;;;7.65;6.35;;;;;;;17.22;63.27;98687.53;5051998;28;20134;-91
2023/05/24 02:30:35;;;;;;;9.50;6.05;;;;;;;17.30;63.09;98695.19;5043352;28;20078;-90
2023/05/24 02:33:00;;;;;;;11.50;6.55;;;;;;;17.30;63.02;98684.47;5043278;28;20142;-90
2023/05/24 02:35:26;;;;;;;11.73;6.95;;;;;;;17.31;62.86;98692.28;5043257;28;20631;-90
2023/05/24 02:38:00;;;;;;;8.35;6.22;;;;;;;17.29;63.12;98686.38;5028286;28;20498;-92
2023/05/24 02:40:26;;;;;;;9.02;6.25;;;;;;;17.27;62.49;98690.34;5018956;28;20044;-91
2023/05/24 02:42:52;;;;;;;7.95;6.40;;;;;;;17.34;62.68;98695.53;5002327;28;20097;-90
2023/05/24 02:45:21;;;;;;;9.82;6.10;;;;;;;17.42;62.64;98687.91;5002857;28;20521;-92
2023/05/24 02:47:50;;;;;;;8.63;6.10;;;;;;;17.48;62.34;98688.03;5003042;28;20094;-93
2023/05/24 02:50:22;;;;;;;7.43;6.10;;;;;;;17.51;62.53;98691.03;5003639;28;20131;-92
2023/05/24 02:52:51;;;;;;;11.48;6.82;;;;;;;17.44;62.60;98685.00;5003127;28;20490;-92
2023/05/24 02:55:21;;;;;;;13.40;8.30;;;;;;;17.45;62.30;98681.28;5016099;28;20191;-92
2023/05/24 02:57:47;;;;;;;10.43;7.05;;;;;;;17.37;62.28;98678.97;5003553;28;20490;-92
2023/05/24 03:00:20;;;;;;;11.88;7.30;;;;;;;17.39;62.93;98683.06;5003606;28;20055;-91
2023/05/24 03:02:49;;;;;;;17.17;7.40;;;;;;;17.32;63.18;98674.31;5003726;28;20037;-91
2023/05/24 03:05:16;;;;;;;12.90;6.35;;;;;;;17.29;63.33;98688.22;5002757;28;20044;-91
2023/05/24 03:07:42;;;;;;;7.97;6.40;;;;;;;17.23;63.27;98681.94;5035247;28;20043;-91
2023/05/24 03:10:15;;;;;;;8.60;6.47;;;;;;;17.35;63.34;98683.75;5019231;28;20045;-91
2023/05/24 03:12:44;;;;;;;8.98;7.30;;;;;;;17.31;63.16;98683.44;5003611;28;20037;-93
2023/05/24 03:15:16;;;;;;;7.43;6.70;;;;;;;17.22;63.49;98676.81;5004291;28;20045;-91
2023/05/24 03:17:42;;;;;;;8.55;6.70;;;;;;;17.34;63.31;98690.19;5019560;28;20091;-91
2023/05/24 03:20:10;;;;;;;7.68;6.30;;;;;;;17.38;63.25;98686.78;5003384;28;20410;-91
2023/05/24 03:22:44;;;;;;;8.38;6.90;;;;;;;17.36;63.13;98672.00;5003988;28;20041;-91
2023/05/24 03:25:10;;;;;;;8.35;7.00;;;;;;;17.30;62.80;98665.72;5035661;28;20056;-91
2023/05/24 03:27:37;;;;;;;7.07;6.35;;;;;;;17.36;62.92;98674.66;5003126;28;20041;-91
2023/05/24 03:30:05;;;;;;;8.40;6.43;;;;;;;17.48;62.96;98682.66;5003168;28;20056;-92
2023/05/24 03:33:01;;;;;;;7.88;7.07;;;;;;;17.60;62.66;98673.50;5036818;28;20037;-92
2023/05/24 03:36:04;;;;;;;8.65;6.90;;;;;;;17.69;62.64;98665.88;5004506;28;20053;-91
2023/05/24 03:38:32;;;;;;;8.60;6.95;;;;;;;17.68;62.39;98666.13;4989484;28;20102;-92
2023/05/24 03:41:43;;;;;;;7.53;6.50;;;;;;;17.80;62.02;98674.09;5053645;28;20056;-92
2023/05/24 03:44:13;;;;;;;10.98;6.47;;;;;;;17.80;62.21;98666.06;5037138;28;20040;-90
2023/05/24 03:46:39;;;;;;;11.00;6.72;;;;;;;17.69;62.16;98662.38;5020582;28;20045;-91
2023/05/24 03:49:06;;;;;;;7.15;6.35;;;;;;;17.73;62.08;98667.00;5023678;28;20070;-91
2023/05/24 03:55:05;;;;;;;8.02;6.57;;;;;;;17.78;61.63;98649.41;4959608;28;20051;-94
2023/05/24 03:57:39;;;;;;;12.57;6.32;;;;;;;17.73;61.78;98658.16;4980300;28;20113;-94
2023/05/24 04:00:06;;;;;;;12.70;7.00;;;;;;;17.68;62.07;98650.84;4963938;28;20096;-93
2023/05/24 04:02:40;;;;;;;10.07;7.15;;;;;;;17.64;61.81;98647.00;4999258;28;20122;-91
2023/05/24 04:05:56;;;;;;;10.07;7.15;;;;;;;17.94;61.88;98667.34;4982848;28;20104;-92
2023/05/24 04:08:48;;;;;;;10.38;7.65;;;;;;;17.86;61.94;98659.69;4966951;28;20091;-93
2023/05/24 04:11:14;;;;;;;10.10;7.05;;;;;;;17.70;61.51;98648.72;4982763;28;20081;-93
2023/05/24 04:14:05;;;;;;;9.32;7.20;;;;;;;17.93;61.90;98657.69;4966683;28;20572;-90
2023/05/24 04:16:40;;;;;;;8.23;7.25;;;;;;;17.79;61.58;98651.03;4982249;28;20069;-90
2023/05/24 04:19:12;;;;;;;10.32;7.47;;;;;;;17.83;61.29;98657.50;4983018;28;20111;-92
2023/05/24 04:22:26;;;;;;;;;;;;;;;;;;;;;
2023/05/24 04:25:37;;;;;;;10.57;7.07;;;;;;;18.04;61.13;98666.72;5017079;28;20049;-93
2023/05/24 04:28:08;;;;;;;9.65;7.55;;;;;;;17.98;60.92;98652.38;5002194;28;20049;-90
2023/05/24 04:30:39;;;;;;;10.02;7.28;;;;;;;18.15;60.35;98665.00;4987136;28;20068;-90
2023/05/24 04:37:08;;;;;;;8.35;6.80;;;;;;;18.61;59.11;98648.75;5010555;28;20067;-91
2023/05/24 04:39:44;;;;;;;11.10;7.05;;;;;;;18.72;59.08;98652.34;4986303;28;20475;-91
2023/05/24 04:42:16;;;;;;;7.88;6.35;;;;;;;18.93;58.42;98645.38;4986012;28;20072;-91
2023/05/24 04:44:44;;;;;;;10.07;6.38;;;;;;;19.05;57.87;98642.53;5018945;28;20088;-92
2023/05/24 04:47:11;;;;;;;11.55;7.10;;;;;;;19.36;57.00;98652.81;4986489;28;20098;-91
2023/05/24 04:49:40;;;;;;;9.30;6.75;;;;;;;19.64;56.81;98648.22;4987269;28;20127;-91
2023/05/24 04:52:11;;;;;;;9.38;6.97;;;;;;;19.93;55.47;98643.38;4987023;28;20411;-92
2023/05/24 04:54:37;;;;;;;11.55;6.60;;;;;;;20.19;54.98;98646.25;4988357;28;20061;-91
2023/05/24 04:57:03;;;;;;;9.70;6.55;;;;;;;20.26;55.04;98664.03;5002898;28;20041;-91
2023/05/24 04:59:29;;;;;;;10.00;6.47;;;;;;;20.19;55.08;98648.13;5002496;28;20221;-93
2023/05/24 05:01:59;;;;;;;11.43;6.90;;;;;;;20.48;54.60;98667.44;5019443;28;20059;-92
2023/05/24 05:04:27;;;;;;;9.50;6.07;;;;;;;20.57;54.17;98664.22;5003543;28;20441;-92
2023/05/24 05:06:54;;;;;;;7.22;5.97;;;;;;;20.61;53.17;98658.06;5019304;28;20141;-93
2023/05/24 05:09:23;;;;;;;10.02;6.78;;;;;;;20.50;53.12;98670.69;5002666;28;20037;-94
2023/05/24 05:11:59;;;;;;;9.45;6.10;;;;;;;20.56;53.99;98678.78;5018241;28;20128;-91
2023/05/24 05:14:32;;;;;;;9.32;6.30;;;;;;;20.42;54.07;98681.94;5001493;28;20395;-91
2023/05/24 05:17:32;;;;;;;;;;;;;;;;;;;;;
2023/05/24 05:20:04;;;;;;;11.77;6.55;;;;;;;20.50;53.38;98676.06;5018434;28;20037;-91
2023/05/24 05:22:33;;;;;;;9.30;6.55;;;;;;;20.26;54.13;98666.75;5001988;28;20083;-91
2023/05/24 05:24:59;;;;;;;10.63;7.20;;;;;;;20.29;53.96;98668.94;5001893;28;20041;-91
2023/05/24 05:27:30;;;;;;;11.30;6.18;;;;;;;20.26;54.13;98677.50;5002913;28;20169;-91
2023/05/24 05:29:56;;;;;;;8.70;6.35;;;;;;;20.22;54.24;98680.72;5001568;28;20046;-92
2023/05/24 05:32:31;;;;;;;8.82;5.90;;;;;;;20.26;55.10;98672.94;5001527;28;20507;-92
2023/05/24 05:35:18;;;;;;;17.67;6.80;;;;;;;20.21;54.78;98676.41;5002814;28;20037;-92
2023/05/24 05:37:44;;;;;;;12.23;6.28;;;;;;;20.18;55.49;98666.16;4985952;28;20047;-93
2023/05/24 05:40:12;;;;;;;9.55;7.20;;;;;;;20.31;54.62;98667.59;5002027;28;20071;-94
2023/05/24 05:43:03;;;;;;;10.18;6.95;;;;;;;20.36;55.11;98670.31;5020403;28;20056;-92
2023/05/24 05:45:36;;;;;;;9.63;5.55;;;;;;;20.44;55.81;98682.47;5011001;28;20520;-93
2023/05/24 05:48:02;;;;;;;7.50;5.55;;;;;;;20.42;55.31;98673.03;5057688;28;20157;-93
2023/05/24 05:50:30;;;;;;;9.60;6.50;;;;;;;20.50;54.31;98662.59;5040709;28;20482;-91
2023/05/24 05:52:56;;;;;;;7.82;5.68;;;;;;;20.64;53.08;98671.00;5041431;28;20063;-92
2023/05/24 05:55:23;;;;;;;11.23;6.03;;;;;;;20.59;53.87;98668.28;5041178;28;20048;-93
2023/05/24 05:57:52;;;;;;;8.60;5.38;;;;;;;20.65;54.22;98666.44;5040641;28;20048;-93
2023/05/24 06:00:22;;;;;;;9.02;5.53;;;;;;;20.74;53.99;98662.16;5037463;28;20044;-92
2023/05/24 06:02:48;;;;;;;11.07;6.07;;;;;;;20.71;53.66;98651.09;5020257;28;20135;-93
2023/05/24 06:05:15;;;;;;;9.18;6.30;;;;;;;20.86;53.00;98661.16;5013722;28;20156;-94
2023/05/24 06:07:44;;;;;;;9.70;6.00;;;;;;;20.94;52.68;98652.56;5023813;28;20033;-93
2023/05/24 06:10:10;;;;;;;10.20;5.40;;;;;;;20.79;53.06;98662.16;5031211;28;20048;-93
2023/05/24 06:12:39;;;;;;;10.43;5.47;;;;;;;20.68;53.01;98668.59;5019819;28;20127;-91
2023/05/24 06:15:06;;;;;;;7.97;5.75;;;;;;;20.52;53.86;98660.44;5013495;28;20047;-91
2023/05/24 06:17:33;;;;;;;7.38;5.78;;;;;;;20.57;53.86;98653.44;5011671;28;20104;-93
2023/05/24 06:20:16;;;;;;;9.77;5.80;;;;;;;20.64;53.60;98654.03;5011434;28;20128;-92
2023/05/24 06:22:43;;;;;;;10.57;5.20;;;;;;;20.64;53.50;98657.53;5015581;28;20045;-92
2023/05/24 06:25:19;;;;;;;8.25;5.10;;;;;;;20.82;52.45;98649.28;5009694;28;20048;-93
2023/05/24 06:27:48;;;;;;;7.43;4.68;;;;;;;20.69;52.08;98659.44;5016946;28;20045;-93
2023/05/24 06:30:25;;;;;;;8.73;4.78;;;;;;;20.45;53.14;98656.38;5033799;28;20137;-92
2023/05/24 06:32:56;;;;;;;6.50;4.75;;;;;;;20.36;52.93;98650.66;5017768;28;20042;-92
2023/05/24 06:35:23;;;;;;;8.80;4.88;;;;;;;20.30;52.83;98647.13;5033415;28;20046;-92
2023/05/24 06:37:49;;;;;;;6.43;4.65;;;;;;;20.30;54.07;98660.56;5031811;28;20041;-92
2023/05/24 06:40:25;;;;;;;;;;;;;;;;;;;;;
2023/05/24 06:42:51;;;;;;;12.20;5.38;;;;;;;20.39;53.36;98658.22;5023995;28;20491;-89
2023/05/24 06:45:20;;;;;;;9.15;4.78;;;;;;;20.41;54.13;98657.94;5018495;28;20048;-89
2023/05/24 06:47:49;;;;;;;7.63;5.47;;;;;;;20.54;53.42;98657.50;5037440;28;20063;-93
2023/05/24 06:50:28;;;;;;;7.82;5.22;;;;;;;20.59;53.52;98651.31;5011771;28;20520;-95
2023/05/24 06:53:11;;;;;;;10.13;6.18;;;;;;;20.52;53.56;98659.63;5019659;28;20548;-93
2023/05/24 06:55:38;;;;;;;7.68;5.80;;;;;;;20.49;53.44;98652.91;5028242;28;20049;-93
2023/05/24 07:01:19;;;;;;;8.05;5.60;;;;;;;20.75;53.56;98660.25;5003363;28;20080;-95
2023/05/24 07:03:51;;;;;;;8.10;6.15;;;;;;;20.72;54.12;98655.41;5021093;28;20095;-92
2023/05/24 07:06:17;;;;;;;9.35;6.45;;;;;;;20.80;52.50;98663.78;5023980;28;20041;-94
2023/05/24 07:08:43;;;;;;;9.95;6.13;;;;;;;21.17;51.97;98664.75;5037114;28;20044;-91
2023/05/24 07:11:31;;;;;;;7.57;6.53;;;;;;;21.38;51.70;98666.72;5024404;28;20399;-92
2023/05/24 07:13:57;;;;;;;7.35;6.07;;;;;;;21.30;50.98;98665.34;5023766;28;20053;-92
2023/05/24 07:16:31;;;;;;;7.60;6.20;;;;;;;21.35;52.84;98658.06;5030955;28;20039;-93
2023/05/24 07:19:02;;;;;;;9.95;6.03;;;;;;;21.19;51.90;98669.88;5029825;28;20090;-93
2023/05/24 07:21:31;;;;;;;7.55;6.50;;;;;;;20.92;53.28;98663.59;5023795;28;20045;-94
2023/05/24 07:24:27;;;;;;;9.15;6.95;;;;;;;20.70;53.15;98669.16;5037512;28;20044;-95
2023/05/24 07:27:23;;;;;;;9.38;6.72;;;;;;;20.79;52.72;98670.25;5033958;28;20114;-94
2023/05/24 07:29:57;;;;;;;10.82;7.65;;;;;;;20.71;53.45;98668.09;5037312;28;20044;-93
2023/05/24 07:33:40;;;;;;;10.27;6.88;;;;;;;20.79;54.02;98675.66;4979134;28;20068;-93
2023/05/24 07:36:39;;;;;;;10.77;7.22;;;;;;;20.88;54.01;98667.09;4988903;28;20045;-92
2023/05/24 07:39:47;;;;;;;10.27;7.28;;;;;;;20.70;54.80;98663.78;5052683;28;20071;-93
2023/05/24 07:42:58;;;;;;;11.13;7.07;;;;;;;20.72;54.36;98668.88;4984664;28;20057;-90
2023/05/24 07:45:24;;;;;;;14.55;8.05;;;;;;;20.50;54.33;98665.28;4968185;28;20419;-95
2023/05/24 07:48:15;;;;;;;10.55;7.70;;;;;;;20.41;55.59;98669.53;4968976;28;20042;-92
2023/05/24 07:50:53;;;;;;;10.60;7.40;;;;;;;20.35;54.87;98671.41;4964258;28;20074;-93
2023/05/24 07:53:44;;;;;;;11.65;7.68;;;;;;;20.38;55.64;98681.63;4997269;28;20044;-92
2023/05/24 07:56:11;;;;;;;10.82;7.80;;;;;;;19.94;56.53;98674.63;5014284;28;20136;-92
2023/05/24 07:58:39;;;;;;;13.05;8.20;;;;;;;19.90;56.76;98692.31;5013131;28;20057;-92
2023/05/24 08:01:05;;;;;;;14.43;7.63;;;;;;;19.85;56.62;98676.13;5007038;28;20177;-92
2023/05/24 08:03:31;;;;;;;11.70;8.50;;;;;;;19.87;56.94;98690.13;5007429;28;20083;-90
2023/05/24 08:05:57;;;;;;;11.73;7.55;;;;;;;19.81;57.01;98678.53;5018489;28;20103;-91
2023/05/24 08:08:32;;;;;;;11.15;7.28;;;;;;;19.81;56.99;98675.81;5000086;28;20402;-92
2023/05/24 08:10:58;;;;;;;11.88;7.55;;;;;;;19.77;57.12;98685.47;5038079;28;20122;-93
2023/05/24 08:13:37;;;;;;;10.18;6.80;;;;;;;19.67;57.33;98675.44;5027167;28;20043;-91
2023/05/24 08:16:13;;;;;;;10.18;7.03;;;;;;;19.70;56.58;98679.50;5023083;28;20040;-94
2023/05/24 08:18:45;;;;;;;8.15;6.20;;;;;;;19.67;57.09;98685.41;5035876;28;20048;-92
2023/05/24 08:21:11;;;;;;;14.43;6.85;;;;;;;19.63;56.54;98678.88;5042165;28;20167;-91
2023/05/24 08:23:45;;;;;;;12.13;6.50;;;;;;;19.71;57.24;98680.28;5004383;28;20483;-91
2023/05/24 08:26:19;;;;;;;8.73;6.10;;;;;;;19.62;56.73;98678.09;5027874;28;20047;-92
2023/05/24 08:28:46;;;;;;;8.63;6.55;;;;;;;19.49;56.77;98678.47;5031121;28;20041;-93
2023/05/24 08:31:15;;;;;;;7.68;6.13;;;;;;;19.58;57.01;98685.03;5030910;28;20036;-93
2023/05/24 08:33:42;;;;;;;8.55;5.78;;;;;;;19.60;56.95;98680.19;5016792;28;20106;-93
2023/05/24 08:36:08;;;;;;;9.88;5.88;;;;;;;19.69;56.71;98685.94;5027049;28;20494;-95
2023/05/24 08:38:36;;;;;;;8.10;6.30;;;;;;;19.73;56.66;98675.50;5026949;28;20106;-95
2023/05/24 08:41:07;;;;;;;10.18;6.13;;;;;;;19.89;56.32;98677.22;5026056;28;20104;-96
2023/05/24 08:43:34;;;;;;;10.27;6.10;;;;;;;20.10;56.09;98690.88;5026710;28;20044;-94
2023/05/24 08:46:02;;;;;;;9.68;5.85;;;;;;;20.06;56.54;98684.41;5018815;28;20045;-93
2023/05/24 08:48:28;;;;;;;7.43;6.45;;;;;;;20.12;55.71;98683.34;5005379;28;20029;-93
2023/05/24 08:50:56;;;;;;;9.88;6.30;;;;;;;20.22;55.64;98690.72;5004849;28;20052;-94
2023/05/24 08:53:22;;;;;;;10.30;6.68;;;;;;;20.29;55.97;98675.13;5004966;28;20044;-93
2023/05/24 08:55:53;;;;;;;9.30;6.40;;;;;;;20.57;56.19;98675.00;4996532;28;20079;-94
2023/05/24 08:58:25;;;;;;;9.73;6.45;;;;;;;20.90;55.53;98681.09;5035501;28;20137;-95
2023/05/24 09:00:54;;;;;;;10.32;7.50;;;;;;;21.33;54.47;98681.00;5003447;28;20041;-96
2023/05/24 09:03:21;;;;;;;8.73;7.03;;;;;;;21.55;54.19;98682.66;5002589;28;20048;-96
2023/05/24 09:06:10;;;;;;;12.13;7.18;;;;;;;22.06;52.48;98695.38;5018939;28;20088;-94
2023/05/24 09:08:37;;;;;;;16.83;7.55;;;;;;;21.50;53.04;98680.75;5020445;28;20071;-94
2023/05/24 09:11:04;;;;;;;13.25;7.53;;;;;;;21.39;53.15;98685.31;5019356;28;20065;-93
2023/05/24 09:13:30;;;;;;;8.35;6.82;;;;;;;21.59;53.91;98692.63;5018050;28;20111;-93
2023/05/24 09:15:58;;;;;;;10.55;7.22;;;;;;;21.83;51.59;98686.75;5005570;28;20140;-92
2023/05/24 09:18:27;;;;;;;10.38;6.75;;;;;;;21.64;51.93;98679.13;5019453;28;20061;-92
2023/05/24 09:20:56;;;;;;;11.77;7.32;;;;;;;21.83;52.72;98680.53;5022304;28;20047;-93
2023/05/24 09:23:24;;;;;;;8.55;6.30;;;;;;;21.89;52.83;98682.97;5028692;28;20033;-92
2023/05/24 09:26:12;;;;;;;7.88;6.32;;;;;;;22.19;51.72;98683.22;5014165;28;20080;-93
2023/05/24 09:28:40;;;;;;;11.50;6.78;;;;;;;22.20;51.80;98690.25;5008453;28;20038;-93
2023/05/24 09:31:06;;;;;;;8.45;6.43;;;;;;;22.27;51.34;98685.38;5021199;28;20464;-94
2023/05/24 09:33:33;;;;;;;9.40;5.93;;;;;;;22.17;51.64;98686.19;5023357;28;20047;-95
2023/05/24 09:36:37;;;;;;;15.88;6.55;;;;;;;22.53;50.93;98689.91;5036551;28;20048;-93
2023/05/24 09:39:23;;;;;;;7.57;6.18;;;;;;;22.01;51.88;98681.88;5039665;28;20033;-96
2023/05/24 09:41:55;;;;;;;9.57;5.82;;;;;;;22.36;50.55;98696.44;5037081;28;20514;-93
2023/05/24 09:44:35;;;;;;;11.93;5.82;;;;;;;22.55;50.34;98688.56;5037070;28;20037;-94
2023/05/24 09:47:05;;;;;;;13.50;6.20;;;;;;;22.35;49.48;98685.88;5035273;28;20049;-95
2023/05/24 09:53:55;;;;;;;11.90;6.63;;;;;;;22.44;49.56;98701.28;5022508;28;20560;-94
2023/05/24 09:56:26;;;;;;;10.20;5.88;;;;;;;22.09;50.16;98697.53;5012294;28;20495;-96
2023/05/24 10:02:37;;;;;;;;;;;;;;;;;;;;;
2023/05/24 10:08:21;;;;;;;14.00;7.80;;;;;;;22.37;50.83;98692.63;4954090;29;20043;-95
2023/05/24 10:10:54;;;;;;;13.85;6.70;;;;;;;22.17;51.17;98693.50;4922251;29;20055;-96
2023/05/24 10:13:30;;;;;;;8.55;6.38;;;;;;;21.84;51.31;98695.66;4999309;28;20613;-92
2023/05/24 10:15:59;;;;;;;10.07;6.00;;;;;;;21.88;50.88;98699.44;5022859;28;20041;-95
2023/05/24 10:18:25;;;;;;;11.80;6.53;;;;;;;21.71;51.33;98703.19;5022479;28;20033;-93
2023/05/24 10:21:39;;;;;;;9.93;5.43;;;;;;;21.72;50.76;98704.00;5041403;28;20100;-95
2023/05/24 10:24:34;;;;;;;9.90;5.28;;;;;;;21.50;51.54;98707.72;5027861;28;20041;-95
2023/05/24 10:30:58;;;;;;;11.00;6.13;;;;;;;21.44;50.72;98708.78;5037145;28;20049;-94
2023/05/24 10:33:47;;;;;;;9.98;5.68;;;;;;;21.23;50.52;98706.03;5020838;28;20041;-94
2023/05/24 10:36:30;;;;;;;8.80;5.28;;;;;;;21.36;51.83;98720.91;5013565;28;20041;-96
2023/05/24 10:39:22;;;;;;;10.10;6.30;;;;;;;21.25;51.66;98721.94;5034275;28;20037;-94
2023/05/24 10:42:13;;;;;;;15.60;6.07;;;;;;;21.20;52.35;98714.66;5052894;28;20099;-93
2023/05/24 10:44:39;;;;;;;10.00;5.93;;;;;;;21.30;52.02;98720.09;5035418;28;20059;-92
2023/05/24 10:47:27;;;;;;;;;;;;;;;;;;;;;
2023/05/24 10:50:03;;;;;;;8.82;5.28;;;;;;;21.53;51.12;98723.38;5019286;28;20037;-95
2023/05/24 10:52:36;;;;;;;10.85;5.07;;;;;;;21.53;51.78;98722.56;5004397;28;20045;-93
2023/05/24 10:58:04;;;;;;;10.20;4.90;;;;;;;21.98;50.74;98726.44;5027581;28;20059;-94
2023/05/24 11:00:34;;;;;;;9.02;6.05;;;;;;;22.02;50.66;98734.81;5013433;28;20103;-93
2023/05/24 11:03:29;;;;;;;9.32;5.18;;;;;;;22.08;50.87;98727.53;5001313;28;20037;-92
2023/05/24 11:06:14;;;;;;;8.10;5.28;;;;;;;22.08;49.98;98724.81;4990496;28;20418;-90
2023/05/24 11:08:47;;;;;;;11.00;5.63;;;;;;;22.25;49.88;98735.34;5029499;28;20068;-94
2023/05/24 11:11:32;;;;;;;10.60;5.90;;;;;;;22.47;49.52;98721.53;5009458;28;20045;-93
2023/05/24 11:14:00;;;;;;;8.02;5.90;;;;;;;22.47;50.47;98732.31;5003426;28;20037;-92
2023/05/24 11:16:38;;;;;;;11.32;6.03;;;;;;;22.63;50.08;98732.34;4985709;28;20041;-93
2023/05/24 11:19:17;;;;;;;15.70;6.50;;;;;;;23.06;49.12;98746.28;4989590;28;20063;-95
2023/05/24 11:21:51;;;;;;;8.35;4.93;;;;;;;22.81;48.71;98728.22;5002250;28;20041;-94
2023/05/24 11:25:02;;;;;;;7.53;4.88;;;;;;;22.59;49.18;98737.47;4986778;28;20049;-92
2023/05/24 11:27:57;;;;;;;7.93;5.22;;;;;;;22.22;49.91;98730.47;5001212;28;20041;-93
2023/05/24 11:30:26;;;;;;;8.18;5.18;;;;;;;22.62;49.68;98742.34;4979313;28;20075;-93
2023/05/24 11:33:24;;;;;;;10.93;5.72;;;;;;;22.85;48.22;98735.53;5001967;28;20100;-91
2023/05/24 11:36:01;;;;;;;7.95;4.82;;;;;;;23.14;47.50;98729.47;4983306;28;20061;-94
2023/05/24 11:38:36;;;;;;;7.43;4.72;;;;;;;22.78;47.91;98737.69;5004086;28;20046;-93
2023/05/24 11:41:02;;;;;;;7.28;4.60;;;;;;;22.25;48.67;98738.03;4977698;28;20073;-94
2023/05/24 11:43:30;;;;;;;9.10;5.47;;;;;;;22.30;48.40;98738.84;4978158;28;20057;-92
2023/05/24 11:45:56;;;;;;;9.40;5.65;;;;;;;22.25;49.01;98735.34;4971032;28;20050;-94
2023/05/24 11:48:26;;;;;;;10.50;5.97;;;;;;;22.28;48.98;98742.91;4974138;28;20061;-94
2023/05/24 11:50:52;;;;;;;7.30;5.50;;;;;;;22.32;49.56;98731.28;4945139;28;20050;-93
2023/05/24 11:53:19;;;;;;;10.35;6.00;;;;;;;22.31;49.46;98742.34;4945191;28;20094;-94
2023/05/24 11:55:45;;;;;;;8.23;6.32;;;;;;;22.16;50.48;98727.78;4956901;28;20152;-93
2023/05/24 11:58:43;;;;;;;13.00;7.20;;;;;;;22.27;50.69;98749.38;4980785;28;20522;-93
2023/05/24 12:01:27;;;;;;;12.63;7.28;;;;;;;21.92;51.03;98735.59;4980362;28;20143;-92
2023/05/24 12:03:53;;;;;;;7.97;7.05;;;;;;;21.58;51.46;98739.59;4999838;28;20041;-95
2023/05/24 12:06:21;;;;;;;10.55;6.85;;;;;;;21.70;52.14;98733.16;5019906;28;20562;-91
2023/05/24 12:08:47;;;;;;;13.48;7.88;;;;;;;21.81;50.89;98733.97;5002911;28;20041;-91
2023/05/24 12:11:16;;;;;;;12.63;8.30;;;;;;;21.70;51.73;98733.16;5004364;28;20142;-93
2023/05/24 12:14:04;;;;;;;11.50;7.78;;;;;;;21.67;51.50;98736.38;5021269;28;20040;-92
2023/05/24 12:16:35;;;;;;;11.60;7.32;;;;;;;21.81;51.54;98726.69;5024453;28;20572;-93
2023/05/24 12:19:01;;;;;;;10.48;8.30;;;;;;;21.84;51.67;98731.56;5033862;28;20052;-92
2023/05/24 12:21:56;;;;;;;10.88;7.55;;;;;;;21.95;50.76;98728.84;5025613;28;20075;-89
2023/05/24 12:24:24;;;;;;;11.65;7.95;;;;;;;21.47;51.88;98729.84;5036018;28;20055;-93
2023/05/24 12:26:58;;;;;;;13.18;7.97;;;;;;;21.46;52.09;98723.63;5026705;28;20090;-92
2023/05/24 12:32:23;;;;;;;9.20;7.45;;;;;;;21.58;51.83;98725.28;5022754;28;20036;-92
2023/05/24 12:34:49;;;;;;;11.68;7.47;;;;;;;21.53;51.61;98722.56;5028582;28;20082;-93
2023/05/24 12:37:17;;;;;;;11.05;6.80;;;;;;;21.63;50.77;98725.28;5031730;28;20052;-94
2023/05/24 12:39:46;;;;;;;9.13;6.28;;;;;;;21.59;50.95;98724.19;5042177;28;20037;-92
2023/05/24 12:42:15;;;;;;;12.05;6.07;;;;;;;21.54;51.54;98714.19;5022657;28;20044;-93
2023/05/24 12:44:51;;;;;;;13.15;6.75;;;;;;;21.59;50.76;98714.22;5030410;28;20074;-94
2023/05/24 12:47:17;;;;;;;13.13;7.30;;;;;;;21.47;51.61;98703.66;5057624;28;20051;-91
2023/05/24 12:49:48;;;;;;;9.02;6.85;;;;;;;21.56;51.12;98705.84;5028575;28;20072;-92